createdAt,value
2023-05-14T06:58:07.140Z,15.02
2023-05-14T07:00:33.551Z,14.68
2023-05-14T07:03:00.035Z,12.90
2023-05-14T07:05:26.600Z,13.93
2023-05-14T07:07:53.021Z,13.73
2023-05-14T07:10:19.455Z,12.00
2023-05-14T07:12:45.921Z,12.82
2023-05-14T07:15:12.426Z,15.65
2023-05-14T07:17:39.085Z,14.00
2023-05-14T07:20:06.186Z,11.57
2023-05-14T07:22:32.761Z,11.35
2023-05-14T07:24:59.232Z,13.43
2023-05-14T07:27:26.003Z,13.88
2023-05-14T07:29:52.531Z,12.18
2023-05-14T07:32:18.935Z,13.35
2023-05-14T07:34:45.359Z,14.10
2023-05-14T07:37:11.832Z,13.38
2023-05-14T07:39:38.491Z,13.95
2023-05-14T07:42:05.171Z,13.45
2023-05-14T07:44:31.680Z,14.45
2023-05-14T07:46:58.218Z,15.82
2023-05-14T07:49:24.649Z,12.98
2023-05-14T07:51:51.040Z,15.02
2023-05-14T07:54:17.742Z,14.50
2023-05-14T07:56:44.545Z,14.05
2023-05-14T07:59:11.000Z,13.85
2023-05-14T08:01:39.339Z,13.95
2023-05-14T08:04:06.182Z,14.02
2023-05-14T08:06:32.848Z,13.38
2023-05-14T08:08:59.376Z,15.70
2023-05-14T08:11:26.266Z,16.00
2023-05-14T08:13:52.797Z,12.40
2023-05-14T08:16:19.325Z,13.05
2023-05-14T08:18:45.746Z,13.27
2023-05-14T08:21:12.192Z,12.02
2023-05-14T08:23:38.613Z,13.35
2023-05-14T08:26:05.180Z,13.02
2023-05-14T08:28:31.586Z,13.00
2023-05-14T08:30:58.035Z,13.55
2023-05-14T08:33:24.479Z,12.77
2023-05-14T08:35:53.043Z,13.27
2023-05-14T08:38:19.561Z,11.38
2023-05-14T08:40:59.728Z,13.63
2023-05-14T08:43:30.858Z,11.43
2023-05-14T08:46:01.061Z,12.15
2023-05-14T08:48:33.526Z,10.40
2023-05-14T08:51:01.559Z,11.43
2023-05-14T08:53:28.501Z,10.90
2023-05-14T08:55:55.053Z,12.00
2023-05-14T08:58:21.681Z,12.25
2023-05-14T09:00:48.464Z,11.90
2023-05-14T09:03:15.978Z,12.63
2023-05-14T09:05:42.962Z,11.95
2023-05-14T09:08:09.313Z,13.93
2023-05-14T09:10:35.681Z,12.50
2023-05-14T09:13:02.497Z,11.38
2023-05-14T09:15:29.664Z,11.60
2023-05-14T09:17:56.750Z,12.50
2023-05-14T09:20:25.138Z,11.75
2023-05-14T09:22:54.870Z,15.98
2023-05-14T09:25:26.813Z,13.05
2023-05-14T09:27:56.728Z,13.65
2023-05-14T09:30:25.479Z,13.18
2023-05-14T09:32:54.473Z,12.10
2023-05-14T09:35:23.411Z,14.88
2023-05-14T09:37:51.758Z,11.85
2023-05-14T09:40:19.898Z,11.63
2023-05-14T09:42:48.168Z,12.32
2023-05-14T09:45:15.764Z,11.27
2023-05-14T09:47:42.749Z,12.32
2023-05-14T09:50:10.036Z,12.07
2023-05-14T09:55:04.212Z,9.90
2023-05-14T09:57:30.972Z,11.25
2023-05-14T09:59:57.533Z,9.77
2023-05-14T10:02:26.390Z,9.45
2023-05-14T10:04:54.510Z,10.90
2023-05-14T10:07:25.244Z,10.57
2023-05-14T10:09:58.214Z,9.63
2023-05-14T10:12:31.735Z,8.25
2023-05-14T10:15:01.293Z,8.40
2023-05-14T10:17:32.095Z,9.02
2023-05-14T10:20:02.554Z,10.80
2023-05-14T10:22:33.905Z,9.45
2023-05-14T10:25:01.867Z,9.35
2023-05-14T10:27:28.741Z,8.63
2023-05-14T10:29:56.404Z,8.38
2023-05-14T10:32:25.751Z,8.45
2023-05-14T10:34:53.554Z,9.30
2023-05-14T10:37:25.448Z,8.52
2023-05-14T10:39:51.844Z,9.38
2023-05-14T10:42:22.442Z,7.07
2023-05-14T10:45:02.032Z,9.07
2023-05-14T10:47:29.509Z,6.53
2023-05-14T10:50:00.872Z,8.43
2023-05-14T10:52:27.655Z,7.43
2023-05-14T10:55:01.928Z,7.78
2023-05-14T10:57:31.736Z,8.20
2023-05-14T11:00:01.158Z,7.15
2023-05-14T11:02:56.107Z,8.02
2023-05-14T11:05:22.740Z,8.80
2023-05-14T11:07:50.363Z,8.00
2023-05-14T11:10:25.915Z,8.82
2023-05-14T11:12:52.842Z,8.63
2023-05-14T11:15:24.541Z,7.65
2023-05-14T11:17:52.500Z,6.18
2023-05-14T11:20:19.610Z,9.07
2023-05-14T11:22:48.101Z,7.47
2023-05-14T11:25:15.214Z,6.75
2023-05-14T11:30:17.518Z,5.18
2023-05-14T11:32:46.175Z,5.85
2023-05-14T11:35:13.314Z,7.32
2023-05-14T11:37:40.163Z,7.47
2023-05-14T11:40:16.300Z,6.28
2023-05-14T11:42:42.925Z,5.20
2023-05-14T11:45:13.941Z,5.80
2023-05-14T11:47:43.484Z,5.20
2023-05-14T11:50:11.102Z,6.88
2023-05-14T11:52:40.311Z,7.90
2023-05-14T11:55:11.619Z,5.88
2023-05-14T11:57:38.124Z,5.72
2023-05-14T12:00:08.619Z,7.15
2023-05-14T12:02:36.210Z,6.18
2023-05-14T12:05:02.851Z,5.53
2023-05-14T12:07:30.626Z,6.50
2023-05-14T12:10:01.392Z,5.93
2023-05-14T12:12:27.855Z,7.20
2023-05-14T12:14:54.400Z,6.80
2023-05-14T12:17:22.604Z,6.00
2023-05-14T12:19:52.534Z,6.63
2023-05-14T12:22:22.285Z,6.35
2023-05-14T12:24:59.314Z,5.95
2023-05-14T12:27:27.737Z,7.10
2023-05-14T12:30:19.159Z,6.88
2023-05-14T12:32:48.947Z,5.15
2023-05-14T12:35:15.609Z,5.95
2023-05-14T12:37:42.609Z,5.13
2023-05-14T12:40:09.799Z,7.05
2023-05-14T12:42:36.490Z,5.68
2023-05-14T12:45:05.628Z,6.03
2023-05-14T12:47:32.408Z,5.65
2023-05-14T12:49:58.968Z,7.97
2023-05-14T12:52:36.889Z,5.75
2023-05-14T12:55:06.918Z,5.43
2023-05-14T12:57:35.267Z,6.78
2023-05-14T13:00:07.004Z,5.53
2023-05-14T13:02:42.318Z,5.20
2023-05-14T13:05:10.761Z,6.05
2023-05-14T13:07:37.498Z,7.18
2023-05-14T13:10:05.759Z,7.32
2023-05-14T13:12:32.401Z,7.03
2023-05-14T13:14:58.871Z,9.15
2023-05-14T13:17:25.626Z,8.10
2023-05-14T13:19:52.278Z,10.32
2023-05-14T13:22:18.947Z,11.27
2023-05-14T13:24:45.680Z,11.40
2023-05-14T13:27:12.200Z,11.45
2023-05-14T13:29:38.631Z,11.82
2023-05-14T13:32:05.376Z,10.75
2023-05-14T13:34:31.844Z,10.07
2023-05-14T13:36:59.496Z,11.85
2023-05-14T13:39:27.181Z,10.18
2023-05-14T13:41:57.252Z,9.60
2023-05-14T13:44:24.541Z,10.77
2023-05-14T13:49:17.612Z,9.60
2023-05-14T13:51:44.481Z,8.23
2023-05-14T13:54:11.188Z,7.68
2023-05-14T13:56:37.656Z,7.65
2023-05-14T13:59:04.132Z,7.50
2023-05-14T14:01:31.828Z,8.10
2023-05-14T14:03:58.652Z,8.88
2023-05-14T14:06:27.402Z,8.45
2023-05-14T14:08:54.057Z,9.18
2023-05-14T14:11:20.834Z,8.30
2023-05-14T14:13:47.353Z,9.13
2023-05-14T14:16:13.784Z,8.88
2023-05-14T14:18:40.371Z,6.35
2023-05-14T14:21:06.806Z,8.15
2023-05-14T14:23:33.346Z,6.88
2023-05-14T14:26:00.591Z,7.53
2023-05-14T14:28:27.065Z,6.78
2023-05-14T14:30:53.596Z,7.65
2023-05-14T14:33:20.244Z,9.60
2023-05-14T14:35:46.896Z,8.45
2023-05-14T14:38:13.734Z,7.40
2023-05-14T14:40:40.330Z,6.85
2023-05-14T14:43:06.829Z,6.07
2023-05-14T14:45:33.403Z,5.65
2023-05-14T14:48:37.807Z,6.75
2023-05-14T14:51:06.079Z,6.15
2023-05-14T14:53:33.285Z,6.68
2023-05-14T14:56:03.140Z,6.22
2023-05-14T14:58:30.918Z,6.13
2023-05-14T15:00:58.005Z,6.25
2023-05-14T15:03:25.107Z,6.78
2023-05-14T15:08:20.874Z,6.55
2023-05-14T15:10:47.372Z,6.03
2023-05-14T15:13:13.970Z,7.78
2023-05-14T15:15:40.612Z,6.28
2023-05-14T15:18:07.136Z,5.70
2023-05-14T15:20:33.832Z,6.03
2023-05-14T15:23:00.307Z,7.20
2023-05-14T15:25:27.238Z,5.25
2023-05-14T15:27:53.726Z,6.05
2023-05-14T15:30:20.448Z,6.03
2023-05-14T15:32:47.068Z,6.53
2023-05-14T15:35:13.948Z,7.72
2023-05-14T15:37:42.773Z,5.75
2023-05-14T15:40:10.390Z,8.40
2023-05-14T15:42:38.888Z,5.47
2023-05-14T15:45:07.123Z,7.22
2023-05-14T15:47:33.790Z,6.80
2023-05-14T15:50:00.764Z,7.88
2023-05-14T15:52:27.234Z,8.63
2023-05-14T15:54:54.372Z,9.52
2023-05-14T15:57:20.912Z,8.65
2023-05-14T15:59:47.587Z,8.27
2023-05-14T16:02:15.375Z,9.38
2023-05-14T16:04:41.869Z,8.32
2023-05-14T16:07:10.058Z,8.43
2023-05-14T16:09:37.245Z,10.05
2023-05-14T16:12:05.104Z,11.02
2023-05-14T16:14:33.795Z,8.35
2023-05-14T16:17:01.922Z,7.57
2023-05-14T16:19:28.652Z,7.88
2023-05-14T16:21:55.316Z,7.13
2023-05-14T16:24:21.768Z,7.40
2023-05-14T16:26:48.392Z,10.45
2023-05-14T16:29:14.807Z,8.35
2023-05-14T16:31:41.247Z,9.38
2023-05-14T16:34:07.690Z,8.65
2023-05-14T16:36:34.192Z,7.35
2023-05-14T16:41:30.071Z,8.52
2023-05-14T16:43:56.508Z,7.55
2023-05-14T16:46:23.009Z,8.48
2023-05-14T16:48:50.650Z,9.90
2023-05-14T16:51:17.148Z,10.35
2023-05-14T16:53:43.588Z,10.55
2023-05-14T16:56:10.030Z,7.75
2023-05-14T16:58:36.639Z,8.68
2023-05-14T17:01:03.097Z,7.97
2023-05-14T17:03:29.511Z,8.68
2023-05-14T17:05:55.976Z,9.60
2023-05-14T17:08:22.480Z,8.93
2023-05-14T17:10:48.928Z,8.13
2023-05-14T17:13:15.460Z,8.82
2023-05-14T17:15:42.563Z,7.32
2023-05-14T17:18:09.218Z,9.10
2023-05-14T17:20:35.802Z,8.65
2023-05-14T17:23:02.360Z,8.15
2023-05-14T17:25:28.817Z,9.35
2023-05-14T17:27:55.342Z,9.85
2023-05-14T17:30:21.968Z,9.38
2023-05-14T17:32:50.898Z,8.88
2023-05-14T17:35:17.504Z,9.18
2023-05-14T17:37:44.004Z,8.90
2023-05-14T17:40:10.998Z,8.65
2023-05-14T17:42:37.400Z,9.52
2023-05-14T17:45:04.153Z,9.35
2023-05-14T17:47:30.697Z,8.98
2023-05-14T17:49:57.158Z,10.68
2023-05-14T17:52:23.685Z,9.20
2023-05-14T17:54:50.172Z,8.05
2023-05-14T17:57:16.925Z,11.52
2023-05-14T17:59:43.537Z,8.57
2023-05-14T18:02:09.969Z,8.35
2023-05-14T18:04:36.326Z,7.40
2023-05-14T18:07:03.222Z,10.05
2023-05-14T18:09:29.684Z,10.02
2023-05-14T18:11:57.068Z,9.35
2023-05-14T18:16:49.991Z,11.23
2023-05-14T18:19:16.515Z,13.35
2023-05-14T18:21:43.241Z,10.30
2023-05-14T18:24:09.722Z,14.45
2023-05-14T18:26:36.335Z,9.18
2023-05-14T18:29:02.706Z,11.23
2023-05-14T18:31:29.223Z,10.23
2023-05-14T18:33:55.745Z,12.43
2023-05-14T18:36:22.311Z,10.80
2023-05-14T18:38:48.815Z,11.38
2023-05-14T18:41:15.390Z,11.73
2023-05-14T18:43:41.814Z,14.73
2023-05-14T18:46:08.381Z,11.25
2023-05-14T18:48:35.058Z,14.13
2023-05-14T18:51:01.644Z,12.05
2023-05-14T18:53:29.286Z,12.80
2023-05-14T18:55:56.100Z,12.65
2023-05-14T18:58:22.555Z,12.80
2023-05-14T19:00:49.161Z,15.30
2023-05-14T19:03:15.751Z,15.40
2023-05-14T19:05:42.383Z,14.65
2023-05-14T19:08:08.928Z,15.45
2023-05-14T19:10:35.310Z,16.77
2023-05-14T19:13:02.213Z,15.38
2023-05-14T19:15:28.687Z,15.85
2023-05-14T19:17:55.206Z,12.80
2023-05-14T19:20:21.788Z,13.45
2023-05-14T19:22:48.173Z,11.63
2023-05-14T19:25:14.948Z,11.60
2023-05-14T19:27:41.482Z,12.32
2023-05-14T19:30:08.386Z,12.00
2023-05-14T19:32:37.387Z,11.23
2023-05-14T19:35:05.796Z,12.27
2023-05-14T19:37:32.280Z,12.07
2023-05-14T19:39:58.706Z,14.45
2023-05-14T19:42:25.253Z,15.35
2023-05-14T19:44:51.646Z,14.80
2023-05-14T19:47:18.418Z,16.50
2023-05-14T19:49:44.897Z,17.60
2023-05-14T19:52:11.448Z,28.35
2023-05-14T19:54:37.922Z,17.20
2023-05-14T19:57:04.712Z,19.15
2023-05-14T19:59:31.231Z,19.90
2023-05-14T20:01:57.702Z,18.55
2023-05-14T20:04:26.079Z,15.40
2023-05-14T20:06:52.722Z,16.85
2023-05-14T20:09:20.092Z,19.90
2023-05-14T20:11:46.480Z,17.60
2023-05-14T20:14:12.878Z,18.63
2023-05-14T20:16:39.617Z,19.42
2023-05-14T20:19:06.616Z,18.67
2023-05-14T20:21:33.211Z,15.60
2023-05-14T20:23:59.637Z,15.70
2023-05-14T20:26:26.069Z,16.92
2023-05-14T20:28:53.614Z,14.10
2023-05-14T20:33:48.222Z,16.35
2023-05-14T20:36:14.746Z,15.35
2023-05-14T20:38:41.743Z,17.48
2023-05-14T20:41:08.424Z,14.73
2023-05-14T20:43:34.923Z,15.88
2023-05-14T20:46:01.486Z,16.42
2023-05-14T20:48:27.916Z,13.68
2023-05-14T20:50:54.306Z,14.10
2023-05-14T20:53:21.036Z,16.00
2023-05-14T20:55:47.452Z,13.43
2023-05-14T20:58:13.854Z,12.38
2023-05-14T21:00:40.436Z,13.43
2023-05-14T21:03:07.146Z,15.27
2023-05-14T21:05:33.663Z,15.98
2023-05-14T21:08:00.150Z,17.10
2023-05-14T21:10:26.826Z,13.75
2023-05-14T21:12:53.371Z,13.18
2023-05-14T21:15:19.981Z,12.98
2023-05-14T21:17:46.490Z,13.07
2023-05-14T21:20:15.329Z,12.27
2023-05-14T21:22:41.769Z,13.98
2023-05-14T21:25:08.652Z,14.13
2023-05-14T21:27:35.207Z,14.30
2023-05-14T21:30:01.610Z,14.70
2023-05-14T21:32:28.259Z,15.20
2023-05-14T21:34:54.758Z,15.32
2023-05-14T21:37:21.808Z,17.08
2023-05-14T21:39:48.269Z,16.20
2023-05-14T21:42:16.066Z,16.77
2023-05-14T21:44:42.578Z,18.67
2023-05-14T21:47:09.023Z,22.60
2023-05-14T21:49:35.667Z,21.15
2023-05-14T21:52:02.195Z,21.58
2023-05-14T21:54:28.688Z,25.42
2023-05-14T21:56:55.389Z,25.20
2023-05-14T21:59:21.919Z,25.83
2023-05-14T22:02:05.681Z,29.10
2023-05-14T22:04:33.746Z,29.83
2023-05-14T22:07:00.157Z,29.48
2023-05-14T22:09:26.712Z,27.35
2023-05-14T22:11:53.170Z,25.83
2023-05-14T22:14:19.623Z,23.27
2023-05-14T22:16:47.189Z,24.98
2023-05-14T22:21:40.239Z,19.73
2023-05-14T22:24:07.424Z,22.30
2023-05-14T22:26:34.642Z,20.92
2023-05-14T22:29:01.086Z,22.45
2023-05-14T22:31:27.578Z,24.45
2023-05-14T22:33:54.121Z,25.55
2023-05-14T22:36:20.557Z,27.95
2023-05-14T22:38:46.973Z,29.77
2023-05-14T22:41:13.447Z,27.33
2023-05-14T22:43:39.933Z,23.15
2023-05-14T22:46:06.873Z,19.98
2023-05-14T22:48:33.429Z,23.27
2023-05-14T22:50:59.835Z,18.08
2023-05-14T22:53:26.458Z,15.80
2023-05-14T22:55:52.955Z,14.02
2023-05-14T22:58:19.849Z,15.93
2023-05-14T23:00:46.424Z,21.00
2023-05-14T23:03:12.894Z,15.18
2023-05-14T23:05:39.548Z,14.38
2023-05-14T23:08:06.392Z,14.50
2023-05-14T23:10:33.659Z,13.68
2023-05-14T23:13:00.145Z,14.93
2023-05-14T23:15:26.874Z,12.65
2023-05-14T23:17:53.553Z,12.65
2023-05-14T23:20:20.200Z,13.90
2023-05-14T23:22:46.604Z,23.20
2023-05-14T23:25:13.105Z,23.42
2023-05-14T23:27:39.562Z,24.75
2023-05-14T23:30:06.802Z,21.05
2023-05-14T23:32:33.286Z,23.42
2023-05-14T23:34:59.728Z,23.35
2023-05-14T23:37:26.416Z,20.00
2023-05-14T23:39:53.392Z,18.73
2023-05-14T23:42:20.124Z,20.27
2023-05-14T23:44:46.794Z,16.85
2023-05-14T23:47:13.430Z,17.30
2023-05-14T23:49:40.771Z,19.05
2023-05-14T23:52:07.541Z,16.05
2023-05-14T23:54:33.961Z,14.60
2023-05-14T23:57:00.764Z,16.13
2023-05-14T23:59:27.194Z,14.75
